Alda, NE

10:18 PM CDT on August 27, 2014 (GMT -0500)
Central Nebraska Regional | Change Station
CLOSE
Current Station
Airport
Location: Grand Island,
Elevation: 1857 ft
Nearby Weather Stations
Active Advisory: Flash Flood Watch

Elev 1857 ft 40.96 °N, 98.31 °W | Updated 25 minutes ago

Light Rain
Light Rain
72 °F
Feels Like 72 °F
N
7
Wind Variable Wind from ESE

Today
High -- | Low -- °F
--% Chance of Precip.
Yesterday
High -- | Low -- °F
Precip. -- in
6:55 AM 8:14 PM
Waxing Crescent, 6% visible
Pressure 30.01 in
Visibility 7.0 miles
Clouds Few 9000 ft
Mostly Cloudy 11000 ft
Dew Point 70 °F
Humidity 93%
Rainfall 0.26 in
Snow Depth Not available.
UV 0 out of 12
Pollen 1.60 out of 12
Air Quality Not available.
Flu Activity Not available.
METAR KGRI 280253Z AUTO 12006KT 7SM -RA FEW090 BKN110 22/21 A3004 RMK AO2 SLP161 P0001 60002 T02220211 53001

More Conditions Fewer Conditions

Pressure 30.01 in
Visibility 7.0 miles
Clouds Few 9000 ft
Mostly Cloudy 11000 ft
Dew Point 70 °F
Humidity 93%
Rainfall 0.26 in
Snow Depth Not available.
UV 0 out of 12
Pollen 1.60 out of 12
Air Quality Not available.
Flu Activity Not available.
METAR KGRI 280253Z AUTO 12006KT 7SM -RA FEW090 BKN110 22/21 A3004 RMK AO2 SLP161 P0001 60002 T02220211 53001

More Conditions Fewer Conditions

10-Day Weather Forecast

Almanac

Astronomy

Aug. 27, 2014 Rise Set
Actual Time 6:55 AM CDT 8:14 PM CDT
Civil Twilight 6:27 AM CDT 8:42 PM CDT
Nautical Twilight 5:53 AM CDT 9:16 PM CDT
Astronomical Twilight 5:17 AM CDT 9:52 PM CDT
Moon 8:54 AM CDT (8/27) 9:05 PM CDT (8/27)
Length of Visible Light 14h 15m
Length of Day
13h 18m
Tomorrow will be 2m 34s shorter.
Waxing Crescent, 6% of the Moon is Illuminated
Today
Waxing Crescent
Sep 2
First Quarter
Sep 8
Full
Sep 15
Last Quarter
Sep 24
New

Today's Extremes

State Highs State Lows

Community

WunderPhotos

Upload Photos

1,747,892 photos uploaded!

Nearby

Snow Depth

Station Depth Elevation
No new snow has been reported.

Earthquake Activity

City Distance Mag. Time & Date
No recent earthquake activity has been reported nearby.
Minimum magnitude displayed is 2.5.

Coastal Water Temperatures

Place Temperature
No Stations Reporting

Nearby Weather Stations